Accueil
METAR-TAF:

METAR-TAF

Aéroports :

Aérodrome de Tuléar

Tuléar, Madagascar

latitude: 23-23S, longitude: 043-44E, altitude: 8 m

METAR: absent

Heure: 16:11 (13:11 UTC)

Prévision

Le bulletin a été fait il y a 2 heures et 11 minutes, à 11:00 UTC
Prévision valable du 06 à 12 UTC au 07 à 12 UTC
Vent 12 kt de sud-ouest
Visibilité 10 km ou plus
Quelques nuages à une hauteur de 2300 ft
Nuages épars à une hauteur de 4000 ft
Evoluant progressivement
du 06 à 16 UTC au 06 à 19 UTC
Vent 7 kt de sud-est

TAF: FMST 061100Z 0612/0712 22012KT 9999 FEW023 SCT040 BECMG 0616/0619 14007KT

Observations et prévisions météorologiques de plus de 4000 aéroports (messages METAR et TAF).

Les stations disponibles sont représentées par des disques jaunes et rouges sur la carte.

Passer la souris dessus pour voir le nom de la station.

Cliquer dessus pour voir les observations et prévisions météorologiques.

Pour changer de carte: cliquez sur les boutons verts avec une croix noire pour zoomer, sur le bouton vert avec un tiret pour effectuer un zoom arrière, ou sur les flèches vertes pour les cartes adjacentes.


METAR-TAF: